createdAt,value
2018-06-09T00:00:23.106Z,988.81
2018-06-09T00:01:23.268Z,988.78
2018-06-09T00:02:23.439Z,988.78
2018-06-09T00:03:23.533Z,988.80
2018-06-09T00:04:23.562Z,988.74
2018-06-09T00:05:23.652Z,988.72
2018-06-09T00:06:23.761Z,988.70
2018-06-09T00:07:23.924Z,988.70
2018-06-09T00:08:24.221Z,988.70
2018-06-09T00:09:24.058Z,988.64
2018-06-09T00:10:24.160Z,988.67
2018-06-09T00:11:24.266Z,988.63
2018-06-09T00:12:24.367Z,988.65
2018-06-09T00:13:24.475Z,988.66
2018-06-09T00:14:24.703Z,988.69
2018-06-09T00:15:24.816Z,988.66
2018-06-09T00:16:24.779Z,988.68
2018-06-09T00:17:24.921Z,988.65
2018-06-09T00:18:25.145Z,988.65
2018-06-09T00:19:25.128Z,988.69
2018-06-09T00:20:25.256Z,988.64
2018-06-09T00:21:25.500Z,988.64
2018-06-09T00:22:25.364Z,988.66
2018-06-09T00:23:25.558Z,988.64
2018-06-09T00:24:25.524Z,988.66
2018-06-09T00:25:25.659Z,988.68
2018-06-09T00:26:25.749Z,988.65
2018-06-09T00:27:25.836Z,988.67
2018-06-09T00:28:25.910Z,988.65
2018-06-09T00:29:26.058Z,988.66
2018-06-09T00:30:26.160Z,988.63
2018-06-09T00:31:26.370Z,988.64
2018-06-09T00:32:26.366Z,988.65
2018-06-09T00:33:26.564Z,988.63
2018-06-09T00:34:26.579Z,988.66
2018-06-09T00:35:26.683Z,988.65
2018-06-09T00:36:26.893Z,988.70
2018-06-09T00:37:26.967Z,988.69
2018-06-09T00:38:27.122Z,988.72
2018-06-09T00:39:27.200Z,988.75
2018-06-09T00:40:27.365Z,988.76
2018-06-09T00:41:27.366Z,988.76
2018-06-09T00:42:27.464Z,988.71
2018-06-09T00:43:27.575Z,988.73
2018-06-09T00:44:27.673Z,988.72
2018-06-09T00:45:27.768Z,988.75
2018-06-09T00:46:27.872Z,988.68
2018-06-09T00:47:27.992Z,988.72
2018-06-09T00:48:28.097Z,988.70
2018-06-09T00:49:28.197Z,988.73
2018-06-09T00:50:28.323Z,988.75
2018-06-09T00:51:28.424Z,988.76
2018-06-09T00:52:28.533Z,988.74
2018-06-09T00:53:28.644Z,988.74
2018-06-09T00:54:28.744Z,988.71
2018-06-09T00:55:28.835Z,988.68
2018-06-09T00:56:28.935Z,988.68
2018-06-09T00:57:29.037Z,988.68
2018-06-09T00:58:29.130Z,988.67
2018-06-09T00:59:29.228Z,988.70
2018-06-09T01:00:29.330Z,988.67
2018-06-09T01:01:29.428Z,988.67
2018-06-09T01:02:29.529Z,988.69
2018-06-09T01:03:29.644Z,988.71
2018-06-09T01:04:29.740Z,988.71
2018-06-09T01:05:29.844Z,988.74
2018-06-09T01:06:29.950Z,988.72
2018-06-09T01:07:30.065Z,988.71
2018-06-09T01:08:30.163Z,988.71
2018-06-09T01:09:30.281Z,988.74
2018-06-09T01:10:30.371Z,988.73
2018-06-09T01:11:30.467Z,988.70
2018-06-09T01:12:30.569Z,988.68
2018-06-09T01:13:30.672Z,988.71
2018-06-09T01:14:30.772Z,988.72
2018-06-09T01:15:30.872Z,988.77
2018-06-09T01:16:30.968Z,988.79
2018-06-09T01:17:31.063Z,988.81
2018-06-09T01:18:31.168Z,988.80
2018-06-09T01:19:31.273Z,988.81
2018-06-09T01:20:31.365Z,988.81
2018-06-09T01:21:31.466Z,988.82
2018-06-09T01:22:31.564Z,988.80
2018-06-09T01:23:31.668Z,988.80
2018-06-09T01:24:31.768Z,988.77
2018-06-09T01:25:31.866Z,988.80
2018-06-09T01:26:31.967Z,988.78
2018-06-09T01:27:32.063Z,988.79
2018-06-09T01:28:32.170Z,988.83
2018-06-09T01:29:32.271Z,988.83
2018-06-09T01:30:32.370Z,988.85
2018-06-09T01:31:32.473Z,988.83
2018-06-09T01:32:32.576Z,988.81
2018-06-09T01:33:32.676Z,988.79
2018-06-09T01:34:32.779Z,988.82
2018-06-09T01:35:32.878Z,988.79
2018-06-09T01:36:32.981Z,988.78
2018-06-09T01:37:33.079Z,988.80
2018-06-09T01:38:33.180Z,988.77
2018-06-09T01:39:33.282Z,988.79
2018-06-09T01:40:33.385Z,988.78
2018-06-09T01:41:33.488Z,988.79
2018-06-09T01:42:33.588Z,988.81
2018-06-09T01:43:33.688Z,988.80
2018-06-09T01:44:33.788Z,988.83
2018-06-09T01:45:33.891Z,988.82
2018-06-09T01:46:33.993Z,988.82
2018-06-09T01:47:34.091Z,988.83
2018-06-09T01:48:34.193Z,988.80
2018-06-09T01:49:34.293Z,988.79
2018-06-09T01:50:34.394Z,988.78
2018-06-09T01:51:34.493Z,988.74
2018-06-09T01:52:34.594Z,988.79
2018-06-09T01:53:34.695Z,988.77
2018-06-09T01:54:34.793Z,988.71
2018-06-09T01:55:34.894Z,988.73
2018-06-09T01:56:35.002Z,988.77
2018-06-09T01:57:35.108Z,988.71
2018-06-09T01:58:35.209Z,988.74
2018-06-09T01:59:35.309Z,988.70
2018-06-09T02:00:35.410Z,988.71
2018-06-09T02:01:35.509Z,988.68
2018-06-09T02:02:35.613Z,988.66
2018-06-09T02:03:35.714Z,988.67
2018-06-09T02:04:35.822Z,988.65
2018-06-09T02:05:35.922Z,988.65
2018-06-09T02:06:36.027Z,988.64
2018-06-09T02:07:36.124Z,988.65
2018-06-09T02:08:36.227Z,988.63
2018-06-09T02:09:36.329Z,988.66
2018-06-09T02:10:36.427Z,988.69
2018-06-09T02:11:36.533Z,988.70
2018-06-09T02:12:36.665Z,988.70
2018-06-09T02:13:36.732Z,988.73
2018-06-09T02:14:36.832Z,988.73
2018-06-09T02:15:36.934Z,988.74
2018-06-09T02:16:37.034Z,988.76
2018-06-09T02:17:37.136Z,988.75
2018-06-09T02:18:37.243Z,988.76
2018-06-09T02:19:37.345Z,988.74
2018-06-09T02:20:37.445Z,988.75
2018-06-09T02:21:37.546Z,988.76
2018-06-09T02:22:37.645Z,988.73
2018-06-09T02:23:37.746Z,988.71
2018-06-09T02:24:37.845Z,988.71
2018-06-09T02:25:37.950Z,988.72
2018-06-09T02:26:38.055Z,988.66
2018-06-09T02:27:38.154Z,988.66
2018-06-09T02:28:38.254Z,988.69
2018-06-09T02:29:38.355Z,988.68
2018-06-09T02:30:38.458Z,988.63
2018-06-09T02:31:38.558Z,988.67
2018-06-09T02:32:38.668Z,988.66
2018-06-09T02:33:38.776Z,988.67
2018-06-09T02:34:38.867Z,988.61
2018-06-09T02:35:38.968Z,988.68
2018-06-09T02:36:39.068Z,988.63
2018-06-09T02:37:39.168Z,988.64
2018-06-09T02:38:39.268Z,988.68
2018-06-09T02:39:39.382Z,988.68
2018-06-09T02:40:39.480Z,988.68
2018-06-09T02:41:39.583Z,988.73
2018-06-09T02:42:39.682Z,988.74
2018-06-09T02:43:39.784Z,988.70
2018-06-09T02:44:39.885Z,988.70
2018-06-09T02:45:39.986Z,988.64
2018-06-09T02:46:40.106Z,988.71
2018-06-09T02:47:40.193Z,988.69
2018-06-09T02:48:40.294Z,988.66
2018-06-09T02:49:40.391Z,988.67
2018-06-09T02:50:40.489Z,988.64
2018-06-09T02:51:40.593Z,988.63
2018-06-09T02:52:40.695Z,988.59
2018-06-09T02:53:40.807Z,988.62
2018-06-09T02:54:40.907Z,988.60
2018-06-09T02:55:41.006Z,988.60
2018-06-09T02:56:41.107Z,988.60
2018-06-09T02:57:41.206Z,988.59
2018-06-09T02:58:41.306Z,988.61
2018-06-09T02:59:41.408Z,988.57
2018-06-09T03:00:41.521Z,988.57
2018-06-09T03:01:41.607Z,988.63
2018-06-09T03:02:41.692Z,988.56
2018-06-09T03:03:41.852Z,988.56
2018-06-09T03:04:41.911Z,988.56
2018-06-09T03:05:42.016Z,988.60
2018-06-09T03:06:42.155Z,988.60
2018-06-09T03:07:42.364Z,988.60
2018-06-09T03:08:42.387Z,988.67
2018-06-09T03:09:42.452Z,988.65
2018-06-09T03:10:42.657Z,988.67
2018-06-09T03:11:42.677Z,988.65
2018-06-09T03:12:43.034Z,988.60
2018-06-09T03:13:42.855Z,988.62
2018-06-09T03:14:43.197Z,988.62
2018-06-09T03:15:43.218Z,988.57
2018-06-09T03:16:43.195Z,988.55
2018-06-09T03:17:43.400Z,988.54
2018-06-09T03:18:43.658Z,988.58
2018-06-09T03:19:43.445Z,988.58
2018-06-09T03:20:43.708Z,988.60
2018-06-09T03:21:43.787Z,988.61
2018-06-09T03:22:44.041Z,988.60
2018-06-09T03:23:43.861Z,988.59
2018-06-09T03:24:44.085Z,988.62
2018-06-09T03:25:44.147Z,988.57
2018-06-09T03:26:44.302Z,988.60
2018-06-09T03:27:44.476Z,988.56
2018-06-09T03:28:44.436Z,988.62
2018-06-09T03:29:44.796Z,988.56
2018-06-09T03:30:44.995Z,988.58
2018-06-09T03:31:44.851Z,988.58
2018-06-09T03:32:44.940Z,988.58
2018-06-09T03:33:45.091Z,988.65
2018-06-09T03:34:45.226Z,988.56
2018-06-09T03:35:45.206Z,988.62
2018-06-09T03:36:45.355Z,988.63
2018-06-09T03:37:45.507Z,988.64
2018-06-09T03:38:45.609Z,988.64
2018-06-09T03:39:46.612Z,988.67
2018-06-09T03:40:45.812Z,988.62
2018-06-09T03:41:46.360Z,988.64
2018-06-09T03:42:46.049Z,988.63
2018-06-09T03:43:46.193Z,988.63
2018-06-09T03:44:46.564Z,988.61
2018-06-09T03:45:46.418Z,988.63
2018-06-09T03:46:47.272Z,988.58
2018-06-09T03:47:46.691Z,988.58
2018-06-09T03:48:46.937Z,988.61
2018-06-09T03:49:46.705Z,988.62
2018-06-09T03:50:47.380Z,988.66
2018-06-09T03:51:46.950Z,988.66
2018-06-09T03:52:47.777Z,988.65
2018-06-09T03:53:47.529Z,988.66
2018-06-09T03:54:47.456Z,988.68
2018-06-09T03:55:47.456Z,988.66
2018-06-09T03:56:47.608Z,988.67
2018-06-09T03:57:47.751Z,988.64
2018-06-09T03:58:47.855Z,988.69
2018-06-09T03:59:48.001Z,988.66
2018-06-09T04:00:48.279Z,988.67
2018-06-09T04:01:48.260Z,988.65
2018-06-09T04:02:48.424Z,988.69
2018-06-09T04:03:48.395Z,988.67
2018-06-09T04:04:48.621Z,988.70
2018-06-09T04:05:48.647Z,988.65
2018-06-09T04:06:48.771Z,988.68
2018-06-09T04:07:48.781Z,988.69
2018-06-09T04:08:48.879Z,988.67
2018-06-09T04:09:49.066Z,988.74
2018-06-09T04:10:49.250Z,988.73
2018-06-09T04:11:49.297Z,988.74
2018-06-09T04:12:49.440Z,988.74
2018-06-09T04:13:49.532Z,988.76
2018-06-09T04:14:49.709Z,988.72
2018-06-09T04:15:49.809Z,988.74
2018-06-09T04:16:49.878Z,988.75
2018-06-09T04:17:49.855Z,988.74
2018-06-09T04:18:50.020Z,988.73
2018-06-09T04:19:50.381Z,988.73
2018-06-09T04:20:50.142Z,988.72
2018-06-09T04:21:50.390Z,988.74
2018-06-09T04:22:50.394Z,988.74
2018-06-09T04:23:50.447Z,988.74
2018-06-09T04:24:50.551Z,988.76
2018-06-09T04:25:50.723Z,988.71
2018-06-09T04:26:50.771Z,988.74
2018-06-09T04:27:50.896Z,988.76
2018-06-09T04:28:51.009Z,988.73
2018-06-09T04:29:51.199Z,988.73
2018-06-09T04:30:51.168Z,988.73
2018-06-09T04:31:51.335Z,988.72
2018-06-09T04:32:51.438Z,988.70
2018-06-09T04:33:51.777Z,988.72
2018-06-09T04:34:51.718Z,988.73
2018-06-09T04:35:51.686Z,988.72
2018-06-09T04:36:51.820Z,988.76
2018-06-09T04:37:52.041Z,988.77
2018-06-09T04:38:52.095Z,988.81
2018-06-09T04:39:52.188Z,988.79
2018-06-09T04:40:52.241Z,988.84
2018-06-09T04:41:52.338Z,988.84
2018-06-09T04:42:52.514Z,988.85
2018-06-09T04:43:52.481Z,988.85
2018-06-09T04:44:52.896Z,988.84
2018-06-09T04:45:52.625Z,988.82
2018-06-09T04:46:52.805Z,988.86
2018-06-09T04:47:52.902Z,988.85
2018-06-09T04:48:52.928Z,988.85
2018-06-09T04:49:53.050Z,988.84
2018-06-09T04:50:53.151Z,988.86
2018-06-09T04:51:53.358Z,988.83
2018-06-09T04:52:53.412Z,988.87
2018-06-09T04:53:53.627Z,988.84
2018-06-09T04:54:53.631Z,988.88
2018-06-09T04:55:53.632Z,988.89
2018-06-09T04:56:53.767Z,988.86
2018-06-09T04:57:53.905Z,988.88
2018-06-09T04:58:53.907Z,988.89
2018-06-09T04:59:54.088Z,988.92
2018-06-09T05:00:54.285Z,988.89
2018-06-09T05:01:54.711Z,988.89
2018-06-09T05:02:54.449Z,988.90
2018-06-09T05:03:54.766Z,988.88
2018-06-09T05:04:54.662Z,988.85
2018-06-09T05:05:54.679Z,988.84
2018-06-09T05:06:54.883Z,988.86
2018-06-09T05:07:54.870Z,988.84
2018-06-09T05:08:54.988Z,988.87
2018-06-09T05:09:55.094Z,988.93
2018-06-09T05:10:55.228Z,988.97
2018-06-09T05:11:55.390Z,988.95
2018-06-09T05:12:55.807Z,988.95
2018-06-09T05:13:55.647Z,988.92
2018-06-09T05:14:55.756Z,988.96
2018-06-09T05:15:56.148Z,988.98
2018-06-09T05:16:56.142Z,988.99
2018-06-09T05:17:56.189Z,988.98
2018-06-09T05:18:56.163Z,989.03
2018-06-09T05:19:56.296Z,988.99
2018-06-09T05:20:56.718Z,989.01
2018-06-09T05:21:56.479Z,989.04
2018-06-09T05:22:56.584Z,989.05
2018-06-09T05:23:56.706Z,989.02
2018-06-09T05:24:56.813Z,989.02
2018-06-09T05:25:56.950Z,988.99
2018-06-09T05:26:57.433Z,989.04
2018-06-09T05:27:57.273Z,989.03
2018-06-09T05:28:57.280Z,989.02
2018-06-09T05:29:57.516Z,989.10
2018-06-09T05:30:57.418Z,989.15
2018-06-09T05:31:57.643Z,989.01
2018-06-09T05:32:57.619Z,989.04
2018-06-09T05:33:57.717Z,989.00
2018-06-09T05:34:57.784Z,989.00
2018-06-09T05:35:57.843Z,988.97
2018-06-09T05:36:57.924Z,988.98
2018-06-09T05:37:58.054Z,988.99
2018-06-09T05:38:58.167Z,988.96
2018-06-09T05:39:58.421Z,988.96
2018-06-09T05:40:58.488Z,988.93
2018-06-09T05:41:58.459Z,988.97
2018-06-09T05:42:58.589Z,988.99
2018-06-09T05:43:58.700Z,988.98
2018-06-09T05:44:58.804Z,988.97
2018-06-09T05:45:58.896Z,988.98
2018-06-09T05:46:58.996Z,988.98
2018-06-09T05:47:59.097Z,988.97
2018-06-09T05:48:59.222Z,988.96
2018-06-09T05:49:59.318Z,988.97
2018-06-09T05:50:59.419Z,988.98
2018-06-09T05:51:59.529Z,989.02
2018-06-09T05:52:59.626Z,988.94
2018-06-09T05:53:59.743Z,988.95
2018-06-09T05:54:59.843Z,988.97
2018-06-09T05:55:59.933Z,988.93
2018-06-09T05:57:00.035Z,988.95
2018-06-09T05:58:00.138Z,989.01
2018-06-09T05:59:00.263Z,989.00
2018-06-09T06:00:00.390Z,989.04
2018-06-09T06:01:00.501Z,989.03
2018-06-09T06:02:00.598Z,989.02
2018-06-09T06:03:00.759Z,989.09
2018-06-09T06:04:00.831Z,989.23
2018-06-09T06:05:00.907Z,989.22
2018-06-09T06:06:01.021Z,989.21
2018-06-09T06:07:01.126Z,989.36
2018-06-09T06:08:01.228Z,989.29
2018-06-09T06:09:01.339Z,989.28
2018-06-09T06:10:01.438Z,989.24
2018-06-09T06:11:01.546Z,989.35
2018-06-09T06:12:01.648Z,989.33
2018-06-09T06:13:01.757Z,989.32
2018-06-09T06:14:01.861Z,989.35
2018-06-09T06:15:01.965Z,989.33
2018-06-09T06:16:02.084Z,989.34
2018-06-09T06:17:02.196Z,989.35
2018-06-09T06:18:02.335Z,989.35
2018-06-09T06:19:02.407Z,989.36
2018-06-09T06:20:02.517Z,989.33
2018-06-09T06:21:02.619Z,989.33
2018-06-09T06:22:02.726Z,989.32
2018-06-09T06:23:02.833Z,989.27
2018-06-09T06:24:02.940Z,989.26
2018-06-09T06:25:03.049Z,989.25
2018-06-09T06:26:03.162Z,989.24
2018-06-09T06:27:03.263Z,989.21
2018-06-09T06:28:03.371Z,989.24
2018-06-09T06:29:03.477Z,989.21
2018-06-09T06:30:03.583Z,989.21
2018-06-09T06:31:03.687Z,989.21
2018-06-09T06:32:03.792Z,989.21
2018-06-09T06:33:03.893Z,989.21
2018-06-09T06:34:04.000Z,989.17
2018-06-09T06:35:04.107Z,989.16
2018-06-09T06:36:04.215Z,989.18
2018-06-09T06:37:04.319Z,989.20
2018-06-09T06:38:04.424Z,989.16
2018-06-09T06:39:04.533Z,989.20
2018-06-09T06:40:04.639Z,989.23
2018-06-09T06:41:04.744Z,989.23
2018-06-09T06:42:04.853Z,989.21
2018-06-09T06:43:04.957Z,989.23
2018-06-09T06:44:05.065Z,989.26
2018-06-09T06:45:05.204Z,989.27
2018-06-09T06:46:05.278Z,989.23
2018-06-09T06:47:05.391Z,989.25
2018-06-09T06:48:05.500Z,989.26
2018-06-09T06:49:05.605Z,989.26
2018-06-09T06:50:05.712Z,989.28
2018-06-09T06:51:05.822Z,989.28
2018-06-09T06:52:05.926Z,989.31
2018-06-09T06:53:06.031Z,989.30
2018-06-09T06:54:06.148Z,989.36
2018-06-09T06:55:06.236Z,989.32
2018-06-09T06:56:06.340Z,989.32
2018-06-09T06:57:06.447Z,989.33
2018-06-09T06:58:06.555Z,989.32
2018-06-09T06:59:06.660Z,989.28
2018-06-09T07:00:06.767Z,989.31
2018-06-09T07:01:06.873Z,989.34
2018-06-09T07:02:07.027Z,989.29
2018-06-09T07:03:07.087Z,989.29
2018-06-09T07:04:07.194Z,989.26
2018-06-09T07:05:07.296Z,989.32
2018-06-09T07:06:07.404Z,989.32
2018-06-09T07:07:07.510Z,989.30
2018-06-09T07:08:07.618Z,989.30
2018-06-09T07:09:07.728Z,989.30
2018-06-09T07:10:07.833Z,989.33
2018-06-09T07:11:07.942Z,989.35
2018-06-09T07:12:08.046Z,989.35
2018-06-09T07:13:08.153Z,989.29
2018-06-09T07:14:08.258Z,989.28
2018-06-09T07:15:08.363Z,989.28
2018-06-09T07:16:08.470Z,989.29
2018-06-09T07:17:08.573Z,989.28
2018-06-09T07:18:08.675Z,989.25
2018-06-09T07:19:08.781Z,989.24
2018-06-09T07:20:08.886Z,989.25
2018-06-09T07:21:08.994Z,989.29
2018-06-09T07:22:09.149Z,989.26
2018-06-09T07:23:09.207Z,989.24
2018-06-09T07:24:09.314Z,989.25
2018-06-09T07:25:09.420Z,989.27
2018-06-09T07:26:09.527Z,989.27
2018-06-09T07:27:09.635Z,989.29
2018-06-09T07:28:09.746Z,989.29
2018-06-09T07:29:09.848Z,989.25
2018-06-09T07:30:09.957Z,989.30
2018-06-09T07:31:10.071Z,989.29
2018-06-09T07:32:10.175Z,989.30
2018-06-09T07:33:10.282Z,989.26
2018-06-09T07:34:10.390Z,989.26
2018-06-09T07:35:10.552Z,989.29
2018-06-09T07:36:10.612Z,989.23
2018-06-09T07:37:10.713Z,989.25
2018-06-09T07:38:10.820Z,989.27
2018-06-09T07:39:10.924Z,989.25
2018-06-09T07:40:11.033Z,989.24
2018-06-09T07:41:11.138Z,989.20
2018-06-09T07:42:11.246Z,989.24
2018-06-09T07:43:11.356Z,989.23
2018-06-09T07:44:11.461Z,989.25
2018-06-09T07:45:11.568Z,989.23
2018-06-09T07:46:11.682Z,989.20
2018-06-09T07:47:12.363Z,989.21
2018-06-09T07:48:12.672Z,989.20
2018-06-09T07:49:12.011Z,989.19
2018-06-09T07:50:12.274Z,989.17
2018-06-09T07:51:12.746Z,989.17
2018-06-09T07:52:12.438Z,989.16
2018-06-09T07:53:12.475Z,989.18
2018-06-09T07:54:12.918Z,989.18
2018-06-09T07:55:13.892Z,989.17
2018-06-09T07:56:12.871Z,989.15
2018-06-09T07:57:13.060Z,989.19
2018-06-09T07:58:13.661Z,989.16
2018-06-09T07:59:13.632Z,989.14
2018-06-09T08:00:13.575Z,989.16
2018-06-09T08:01:13.316Z,989.16
2018-06-09T08:02:13.430Z,989.11
2018-06-09T08:03:13.895Z,989.06
2018-06-09T08:04:13.790Z,989.08
2018-06-09T08:05:14.420Z,989.09
2018-06-09T08:06:13.960Z,989.05
2018-06-09T08:07:13.915Z,989.04
2018-06-09T08:08:14.078Z,989.06
2018-06-09T08:09:14.438Z,989.01
2018-06-09T08:10:14.280Z,989.03
2018-06-09T08:11:14.616Z,988.99
2018-06-09T08:12:14.510Z,989.07
2018-06-09T08:13:14.528Z,989.05
2018-06-09T08:14:15.060Z,989.01
2018-06-09T08:15:14.844Z,989.02
2018-06-09T08:16:14.922Z,989.00
2018-06-09T08:17:14.946Z,989.01
2018-06-09T08:18:15.433Z,989.01
2018-06-09T08:19:15.216Z,988.98
2018-06-09T08:20:15.181Z,988.98
2018-06-09T08:21:15.291Z,988.95
2018-06-09T08:22:15.449Z,988.96
2018-06-09T08:23:15.633Z,988.96
2018-06-09T08:24:15.615Z,988.93
2018-06-09T08:25:15.779Z,988.97
2018-06-09T08:26:16.011Z,988.96
2018-06-09T08:27:16.049Z,988.98
2018-06-09T08:28:16.286Z,988.97
2018-06-09T08:29:16.417Z,988.98
2018-06-09T08:30:16.366Z,988.97
2018-06-09T08:31:16.688Z,988.96
2018-06-09T08:32:17.253Z,988.97
2018-06-09T08:33:16.729Z,988.95
2018-06-09T08:34:16.857Z,988.91
2018-06-09T08:35:16.896Z,988.90
2018-06-09T08:36:16.895Z,988.91
2018-06-09T08:37:16.880Z,988.90
2018-06-09T08:38:17.136Z,988.91
2018-06-09T08:39:17.147Z,988.87
2018-06-09T08:40:17.443Z,988.92
2018-06-09T08:41:17.377Z,988.90
2018-06-09T08:42:17.675Z,988.89
2018-06-09T08:43:17.684Z,988.87
2018-06-09T08:44:17.787Z,988.89
2018-06-09T08:45:18.041Z,988.84
2018-06-09T08:46:18.028Z,988.85
2018-06-09T08:47:18.672Z,988.83
2018-06-09T08:48:18.294Z,988.82
2018-06-09T08:49:18.431Z,988.76
2018-06-09T08:50:18.550Z,988.82
2018-06-09T08:51:18.556Z,988.80
2018-06-09T08:52:18.803Z,988.77
2018-06-09T08:53:19.337Z,988.83
2018-06-09T08:54:19.067Z,988.81
2018-06-09T08:55:19.045Z,988.83
2018-06-09T08:56:19.037Z,988.82
2018-06-09T08:57:19.211Z,988.82
2018-06-09T08:58:19.264Z,988.81
2018-06-09T08:59:19.235Z,988.82
2018-06-09T09:00:19.591Z,988.81
2018-06-09T09:01:19.531Z,988.79
2018-06-09T09:02:19.630Z,988.78
2018-06-09T09:03:19.758Z,988.76
2018-06-09T09:04:19.918Z,988.80
2018-06-09T09:05:19.945Z,988.75
2018-06-09T09:06:20.139Z,988.76
2018-06-09T09:07:20.199Z,988.76
2018-06-09T09:08:20.185Z,988.71
2018-06-09T09:09:20.397Z,988.71
2018-06-09T09:10:20.397Z,988.75
2018-06-09T09:11:20.561Z,988.72
2018-06-09T09:12:20.710Z,988.71
2018-06-09T09:13:20.849Z,988.76
2018-06-09T09:14:20.915Z,988.75
2018-06-09T09:15:21.033Z,988.75
2018-06-09T09:16:21.472Z,988.75
2018-06-09T09:17:21.395Z,988.73
2018-06-09T09:18:21.436Z,988.79
2018-06-09T09:19:21.549Z,988.74
2018-06-09T09:20:21.605Z,988.76
2018-06-09T09:21:21.975Z,988.78
2018-06-09T09:22:21.888Z,988.74
2018-06-09T09:23:22.028Z,988.77
2018-06-09T09:24:22.150Z,988.79
2018-06-09T09:25:22.357Z,988.72
2018-06-09T09:26:22.405Z,988.76
2018-06-09T09:27:22.590Z,988.76
2018-06-09T09:28:22.598Z,988.77
2018-06-09T09:29:22.702Z,988.77
2018-06-09T09:30:22.758Z,988.75
2018-06-09T09:31:22.996Z,988.73
2018-06-09T09:32:22.919Z,988.71
2018-06-09T09:33:23.032Z,988.71
2018-06-09T09:34:23.126Z,988.69
2018-06-09T09:35:23.371Z,988.66
2018-06-09T09:36:23.524Z,988.68
2018-06-09T09:37:23.620Z,988.71
2018-06-09T09:38:23.651Z,988.66
2018-06-09T09:39:23.776Z,988.70
2018-06-09T09:40:23.883Z,988.68
2018-06-09T09:41:24.068Z,988.62
2018-06-09T09:42:24.106Z,988.60
2018-06-09T09:43:24.218Z,988.62
2018-06-09T09:44:24.367Z,988.62
2018-06-09T09:45:24.638Z,988.63
2018-06-09T09:46:24.688Z,988.60
2018-06-09T09:47:24.756Z,988.60
2018-06-09T09:48:24.867Z,988.57
2018-06-09T09:49:24.974Z,988.58
2018-06-09T09:50:25.159Z,988.61
2018-06-09T09:51:25.231Z,988.57
2018-06-09T09:52:25.297Z,988.60
2018-06-09T09:53:25.327Z,988.60
2018-06-09T09:54:25.438Z,988.58
2018-06-09T09:55:25.535Z,988.55
2018-06-09T09:56:25.647Z,988.59
2018-06-09T09:57:25.936Z,988.59
2018-06-09T09:58:25.965Z,988.57
2018-06-09T09:59:26.124Z,988.58
2018-06-09T10:00:26.352Z,988.54
2018-06-09T10:01:26.307Z,988.58
2018-06-09T10:02:26.533Z,988.53
2018-06-09T10:03:26.592Z,988.56
2018-06-09T10:04:26.674Z,988.55
2018-06-09T10:05:26.841Z,988.55
2018-06-09T10:06:26.828Z,988.52
2018-06-09T10:07:26.958Z,988.56
2018-06-09T10:08:27.105Z,988.54
2018-06-09T10:09:27.236Z,988.58
2018-06-09T10:10:27.519Z,988.53
2018-06-09T10:11:27.540Z,988.55
2018-06-09T10:12:27.686Z,988.54
2018-06-09T10:13:27.799Z,988.47
2018-06-09T10:14:28.030Z,988.44
2018-06-09T10:15:28.019Z,988.40
2018-06-09T10:16:28.446Z,988.42
2018-06-09T10:17:28.259Z,988.40
2018-06-09T10:18:28.376Z,988.39
2018-06-09T10:19:28.492Z,988.39
2018-06-09T10:20:28.714Z,988.35
2018-06-09T10:21:28.699Z,988.34
2018-06-09T10:22:28.819Z,988.30
2018-06-09T10:23:28.920Z,988.32
2018-06-09T10:24:29.047Z,988.35
2018-06-09T10:25:29.159Z,988.32
2018-06-09T10:26:29.290Z,988.33
2018-06-09T10:27:29.395Z,988.33
2018-06-09T10:28:29.507Z,988.31
2018-06-09T10:29:29.624Z,988.32
2018-06-09T10:30:29.752Z,988.31
2018-06-09T10:31:29.863Z,988.30
2018-06-09T10:32:29.973Z,988.28
2018-06-09T10:33:30.090Z,988.26
2018-06-09T10:34:30.199Z,988.29
2018-06-09T10:35:30.298Z,988.29
2018-06-09T10:36:30.423Z,988.28
2018-06-09T10:37:30.538Z,988.28
2018-06-09T10:38:30.652Z,988.29
2018-06-09T10:39:30.764Z,988.29
2018-06-09T10:40:30.880Z,988.25
2018-06-09T10:41:30.989Z,988.26
2018-06-09T10:42:31.101Z,988.28
2018-06-09T10:43:31.209Z,988.29
2018-06-09T10:44:31.322Z,988.25
2018-06-09T10:45:31.437Z,988.27
2018-06-09T10:46:31.554Z,988.27
2018-06-09T10:47:31.664Z,988.21
2018-06-09T10:48:31.775Z,988.17
2018-06-09T10:49:31.890Z,988.27
2018-06-09T10:50:32.003Z,988.26
2018-06-09T10:51:32.103Z,988.26
2018-06-09T10:52:32.212Z,988.27
2018-06-09T10:53:32.320Z,988.25
2018-06-09T10:54:32.436Z,988.26
2018-06-09T10:55:32.555Z,988.26
2018-06-09T10:56:32.657Z,988.29
2018-06-09T10:57:32.784Z,988.26
2018-06-09T10:58:32.876Z,988.25
2018-06-09T10:59:32.989Z,988.24
2018-06-09T11:00:33.100Z,988.21
2018-06-09T11:01:33.210Z,988.19
2018-06-09T11:02:33.324Z,988.21
2018-06-09T11:03:33.435Z,988.16
2018-06-09T11:04:33.543Z,988.16
2018-06-09T11:05:33.655Z,988.18
2018-06-09T11:06:33.760Z,988.22
2018-06-09T11:07:33.867Z,988.22
2018-06-09T11:08:33.980Z,988.20
2018-06-09T11:09:34.089Z,988.18
2018-06-09T11:10:34.203Z,988.18
2018-06-09T11:11:34.313Z,988.17
2018-06-09T11:12:34.478Z,988.22
2018-06-09T11:13:34.581Z,988.17
2018-06-09T11:14:34.680Z,988.17
2018-06-09T11:15:34.793Z,988.15
2018-06-09T11:16:34.901Z,988.16
2018-06-09T11:17:35.012Z,988.11
2018-06-09T11:18:35.121Z,988.14
2018-06-09T11:19:35.236Z,988.15
2018-06-09T11:20:35.348Z,988.15
2018-06-09T11:21:35.458Z,988.11
2018-06-09T11:22:35.572Z,988.07
2018-06-09T11:23:35.720Z,988.05
2018-06-09T11:24:35.833Z,988.09
2018-06-09T11:25:35.944Z,988.13
2018-06-09T11:26:36.057Z,988.06
2018-06-09T11:27:36.169Z,988.03
2018-06-09T11:28:36.276Z,988.08
2018-06-09T11:29:36.390Z,988.10
2018-06-09T11:30:36.500Z,988.12
2018-06-09T11:31:36.610Z,988.02
2018-06-09T11:32:36.721Z,988.01
2018-06-09T11:33:36.834Z,987.95
2018-06-09T11:34:36.947Z,987.93
2018-06-09T11:35:37.058Z,987.93
2018-06-09T11:36:37.170Z,987.94
2018-06-09T11:37:37.284Z,987.94
2018-06-09T11:38:37.397Z,987.98
2018-06-09T11:39:37.507Z,987.98
2018-06-09T11:40:37.620Z,987.98
2018-06-09T11:41:37.733Z,987.92
2018-06-09T11:42:37.842Z,987.90
2018-06-09T11:43:37.958Z,987.92
2018-06-09T11:44:38.065Z,987.89
2018-06-09T11:45:38.200Z,987.92
2018-06-09T11:46:38.312Z,987.90
2018-06-09T11:47:38.423Z,987.89
2018-06-09T11:48:38.537Z,987.93
2018-06-09T11:49:38.645Z,987.87
2018-06-09T11:50:38.758Z,987.84
2018-06-09T11:51:38.871Z,987.94
2018-06-09T11:52:38.982Z,987.95
2018-06-09T11:53:39.114Z,987.93
2018-06-09T11:54:39.226Z,987.86
2018-06-09T11:55:39.336Z,987.85
2018-06-09T11:56:39.453Z,987.81
2018-06-09T11:57:39.549Z,987.79
2018-06-09T11:58:39.710Z,987.86
2018-06-09T11:59:39.772Z,987.86
2018-06-09T12:00:39.886Z,987.84
2018-06-09T12:01:40.021Z,987.78
2018-06-09T12:02:40.112Z,987.76
2018-06-09T12:03:40.223Z,987.77
2018-06-09T12:04:40.338Z,987.64
2018-06-09T12:05:40.488Z,987.66
2018-06-09T12:06:40.564Z,987.67
2018-06-09T12:07:40.678Z,987.61
2018-06-09T12:08:40.788Z,987.64
2018-06-09T12:09:40.901Z,987.64
2018-06-09T12:10:41.013Z,987.62
2018-06-09T12:11:41.124Z,987.68
2018-06-09T12:12:41.239Z,987.57
2018-06-09T12:13:41.356Z,987.66
2018-06-09T12:14:41.463Z,987.59
2018-06-09T12:15:41.574Z,987.63
2018-06-09T12:16:41.688Z,987.67
2018-06-09T12:17:42.726Z,987.57
2018-06-09T12:18:41.894Z,987.59
2018-06-09T12:19:42.021Z,987.56
2018-06-09T12:20:42.401Z,987.57
2018-06-09T12:21:42.333Z,987.57
2018-06-09T12:22:42.508Z,987.52
2018-06-09T12:23:42.718Z,987.52
2018-06-09T12:24:42.822Z,987.52
2018-06-09T12:25:43.255Z,987.49
2018-06-09T12:26:43.207Z,987.51
2018-06-09T12:27:43.480Z,987.49
2018-06-09T12:28:43.413Z,987.48
2018-06-09T12:29:43.404Z,987.40